Kine — C6WT4 — position and weather

sailwx.info

Track history (hours):
 
Tides and Currents Weather Stations Pressure Air Temp Water Temp Dewpoint Dewpoint Depression Visibility Wind Speed Wind Dir Waves Ship Positions

Kine

Last reported at 2017-Sep-21 06:30 UTC. Time now 2017-Sep-21 06:55 UTC.
Position N 59°11' E 010°57'.

Length 89 m; draft 3.6 m.

Type: Cargo ship. MMSI: 311117000.

Date/timePositionNaut miles runAvg speedWind from/ knotsBaromVisibWave heightAir tempDewpointWater temp
2017-Sep-21 06:30N 59°11' E 010°57'0 0.0
2017-Sep-21 06:00N 59°11' E 010°57'0 0.0
2017-Sep-21 05:30N 59°11' E 010°57'0 0.0
2017-Sep-21 05:00N 59°11' E 010°57'0 0.0
2017-Sep-21 04:30N 59°11' E 010°57'0 0.0
2017-Sep-21 04:00N 59°11' E 010°57'0 0.0
2017-Sep-21 03:30N 59°11' E 010°57'0 0.0
2017-Sep-21 03:00N 59°11' E 010°57'0 0.0
2017-Sep-21 02:30N 59°11' E 010°57'0 0.0
2017-Sep-21 02:00N 59°11' E 010°57'0 0.0
2017-Sep-21 01:30N 59°11' E 010°57'0 0.0
2017-Sep-21 01:00N 59°11' E 010°57'0 0.0
2017-Sep-21 00:30N 59°11' E 010°57'0 0.0
2017-Sep-21 00:00N 59°11' E 010°57'0 0.0
2017-Sep-20 23:30N 59°11' E 010°57'0 0.0
2017-Sep-20 23:00N 59°11' E 010°57'0 0.0
2017-Sep-20 22:30N 59°11' E 010°57'0 0.0
2017-Sep-20 22:00N 59°11' E 010°57'0 0.0
2017-Sep-20 21:30N 59°11' E 010°57'0 0.0
2017-Sep-20 21:00N 59°11' E 010°57'0 0.0
2017-Sep-20 20:30N 59°11' E 010°57'0 0.0
2017-Sep-20 20:00N 59°11' E 010°57'0 0.0
2017-Sep-20 19:30N 59°11' E 010°57'0 0.0
2017-Sep-20 19:00N 59°11' E 010°57'0 0.0
2017-Sep-20 18:30N 59°11' E 010°57'0 0.0
2017-Sep-20 18:00N 59°11' E 010°57'0 0.0
2017-Sep-20 17:31N 59°11' E 010°57'3 5.1
2017-Sep-20 17:01N 59°08' E 010°56'4 8.2
2017-Sep-20 16:30N 59°09' E 010°48'5 9.2
2017-Sep-20 16:00N 59°13' E 010°44'5 9.8
2017-Sep-20 15:31N 59°17' E 010°41'5 9.8
2017-Sep-20 15:00N 59°22' E 010°37'5 4.7
2017-Sep-20 13:59N 59°25' E 010°30'0 0.0
2017-Sep-20 13:29N 59°25' E 010°30'0 0.0
2017-Sep-20 12:59N 59°25' E 010°30'0 0.0
2017-Sep-20 12:29N 59°25' E 010°30'0 0.0
2017-Sep-20 11:59N 59°25' E 010°30'0 0.0
2017-Sep-20 11:29N 59°25' E 010°30'0 0.0
2017-Sep-20 10:59N 59°25' E 010°30'0 0.0
2017-Sep-20 10:29N 59°25' E 010°30'0 0.0
2017-Sep-20 09:59N 59°25' E 010°30'0 0.1
2017-Sep-20 09:29N 59°25' E 010°30'0 0.0
2017-Sep-20 08:59N 59°25' E 010°30'0 0.0
2017-Sep-20 08:29N 59°25' E 010°30'0 0.0
2017-Sep-20 07:59N 59°25' E 010°30'0 0.0
2017-Sep-20 07:29N 59°25' E 010°30'0 0.0
2017-Sep-20 06:59N 59°25' E 010°30'0 0.7
2017-Sep-20 06:30N 59°24' E 010°30'5 9.3
2017-Sep-20 06:00N 59°20' E 010°32'5 9.7
2017-Sep-20 05:30N 59°15' E 010°35'5 9.9
2017-Sep-20 05:00N 59°10' E 010°37'5 9.7
2017-Sep-20 04:30N 59°06' E 010°35'5 9.8
2017-Sep-20 04:00N 59°01' E 010°34'5 9.6
2017-Sep-20 03:30N 58°57' E 010°28'510.0
2017-Sep-20 03:00N 58°54' E 010°20'510.0
2017-Sep-20 02:30N 58°51' E 010°13'510.0
2017-Sep-20 02:00N 58°48' E 010°05'5 9.6
2017-Sep-20 01:30N 58°45' E 009°58'5 9.5
2017-Sep-20 01:00N 58°42' E 009°51'5 9.2
2017-Sep-20 00:30N 58°39' E 009°45'5 9.1
2017-Sep-20 00:00N 58°36' E 009°38'5 9.0
2017-Sep-19 23:29N 58°33' E 009°31'4 9.0
2017-Sep-19 23:00N 58°30' E 009°24'4 8.9
2017-Sep-19 22:30N 58°27' E 009°18'4 8.8
2017-Sep-19 22:00N 58°25' E 009°11'4 8.7
2017-Sep-19 21:30N 58°22' E 009°05'4 8.4
2017-Sep-19 21:00N 58°19' E 008°59'4 8.3
2017-Sep-19 20:30N 58°17' E 008°52'4 7.6
2017-Sep-19 20:00N 58°14' E 008°47'4 7.5
2017-Sep-19 19:30N 58°12' E 008°41'4 7.8
2017-Sep-19 19:00N 58°10' E 008°35'4 7.9
2017-Sep-19 18:30N 58°08' E 008°29'4 7.9
2017-Sep-19 18:00N 58°05' E 008°23'4 7.8
2017-Sep-19 17:30N 58°03' E 008°17'4 7.7
2017-Sep-19 17:00N 58°01' E 008°11'4 7.8
2017-Sep-19 16:30N 57°60' E 008°03'4 8.2
2017-Sep-19 16:00N 57°58' E 007°56'4 8.7
2017-Sep-19 15:30N 57°57' E 007°49'5 9.0
2017-Sep-19 15:00N 57°55' E 007°41'4 9.0
2017-Sep-19 14:30N 57°54' E 007°33'4 8.9
2017-Sep-19 14:00N 57°54' E 007°24'5 9.2
2017-Sep-19 13:30N 57°54' E 007°16'5 9.3
2017-Sep-19 13:00N 57°55' E 007°07'5 9.6
2017-Sep-19 12:30N 57°56' E 006°58'5 9.3
2017-Sep-19 12:01N 57°57' E 006°50'5 9.2
2017-Sep-19 11:30N 57°58' E 006°41'5 9.3
2017-Sep-19 11:00N 58°00' E 006°34'5 9.3
2017-Sep-19 10:30N 58°03' E 006°26'4 9.0
2017-Sep-19 10:00N 58°06' E 006°20'4 8.8
2017-Sep-19 09:31N 58°09' E 006°14'4 8.8
2017-Sep-19 09:00N 58°12' E 006°08'4 8.8
2017-Sep-19 08:30N 58°15' E 006°02'4 8.7
2017-Sep-19 08:00N 58°18' E 005°56'4 8.6
2017-Sep-19 07:30N 58°21' E 005°49'4 8.5
2017-Sep-19 07:00N 58°24' E 005°44'4 8.7
2017-Sep-19 06:30N 58°28' E 005°40'5 9.2
2017-Sep-19 06:00N 58°32' E 005°36'5 9.6
2017-Sep-19 05:29N 58°36' E 005°32'5 9.4
2017-Sep-19 05:00N 58°41' E 005°28'4 9.0
2017-Sep-19 04:30N 58°45' E 005°25'5 9.2
2017-Sep-19 04:00N 58°49' E 005°27'5 9.5
2017-Sep-19 03:30N 58°53' E 005°32'5 9.2
2017-Sep-19 03:00N 58°58' E 005°33'5 9.3
2017-Sep-19 02:31N 59°03' E 005°33'4 7.5
2017-Sep-19 02:01N 59°01' E 005°40'4 8.4
2017-Sep-19 01:30N 59°01' E 005°48'5 9.4
2017-Sep-19 01:00N 58°57' E 005°47'4 8.8
2017-Sep-19 00:30N 58°52' E 005°45'0 0.3
2017-Sep-19 00:00N 58°52' E 005°45'0 0.0
2017-Sep-18 23:30N 58°52' E 005°45'0 0.0
2017-Sep-18 23:00N 58°52' E 005°45'0 0.0
2017-Sep-18 22:30N 58°52' E 005°45'0 0.0
2017-Sep-18 22:00N 58°52' E 005°45'0 0.0
2017-Sep-18 21:30N 58°52' E 005°45'0 0.1
2017-Sep-18 21:00N 58°52' E 005°45'0 0.0
2017-Sep-18 20:30N 58°52' E 005°45'0 0.0
2017-Sep-18 20:00N 58°52' E 005°45'0 0.0
2017-Sep-18 19:30N 58°52' E 005°45'4 7.9
2017-Sep-18 19:00N 58°56' E 005°46'5 9.8
2017-Sep-18 18:30N 59°01' E 005°48'4 8.0
2017-Sep-18 18:00N 59°01' E 005°40'5 9.7
2017-Sep-18 17:30N 59°04' E 005°33'2 4.8
2017-Sep-18 17:00N 59°02' E 005°33'510.8
2017-Sep-18 16:30N 58°57' E 005°33'510.1
2017-Sep-18 16:00N 58°52' E 005°31'4 7.1
2017-Sep-18 15:30N 58°49' E 005°27'4 8.6
2017-Sep-18 15:00N 58°45' E 005°25'510.0
2017-Sep-18 14:30N 58°40' E 005°24'5 9.9
2017-Sep-18 14:00N 58°35' E 005°24'510.7
2017-Sep-18 13:30N 58°29' E 005°24'510.3
2017-Sep-18 13:00N 58°24' E 005°24'5 9.9
2017-Sep-18 12:30N 58°19' E 005°24'349 9.3
2017-Sep-16 22:50N 52°34' E 003°58'26 9.3
2017-Sep-16 19:59N 52°08' E 003°55'4 9.3
2017-Sep-16 19:30N 52°03' E 003°59'5 9.9
2017-Sep-16 19:00N 51°59' E 004°03'611.8
2017-Sep-16 18:30N 51°57' E 004°11'611.3
2017-Sep-16 18:00N 51°54' E 004°19'4 7.2
2017-Sep-16 17:30N 51°54' E 004°25'0 0.0
2017-Sep-16 17:00N 51°54' E 004°25'0 0.0
2017-Sep-16 16:30N 51°54' E 004°25'0 0.0
2017-Sep-16 16:00N 51°54' E 004°25'0 0.0
2017-Sep-16 15:30N 51°54' E 004°25'0 0.0
2017-Sep-16 15:00N 51°54' E 004°25'0 0.0
2017-Sep-16 14:30N 51°54' E 004°25'0 0.0
2017-Sep-16 14:00N 51°54' E 004°25'2 3.0
2017-Sep-16 13:30N 51°54' E 004°27'3 5.2
2017-Sep-16 13:01N 51°54' E 004°31'4 7.9
2017-Sep-16 12:27N 51°52' E 004°38'3 8.0
2017-Sep-16 12:01N 51°49' E 004°41'5 9.2
2017-Sep-16 11:30N 51°49' E 004°48'510.2
2017-Sep-16 11:00N 51°50' E 004°56'2910.0
2017-Sep-16 08:06N 51°53' E 005°43'211.4
2017-Sep-16 07:56N 51°53' E 005°46'410.4
2017-Sep-16 07:30N 51°51' E 005°53'4 8.2
2017-Sep-16 07:00N 51°52' E 005°59'5 9.8
2017-Sep-16 06:30N 51°51' E 006°07'611.1
2017-Sep-16 06:00N 51°49' E 006°16'611.0
2017-Sep-16 05:29N 51°45' E 006°22'5 8.0
2017-Sep-16 04:54N 51°42' E 006°28'410.4
2017-Sep-16 04:30N 51°39' E 006°33'4 8.6
2017-Sep-16 04:00N 51°36' E 006°36'7 8.4
2017-Sep-16 03:11N 51°31' E 006°43'2 9.9
2017-Sep-16 03:00N 51°29' E 006°41'3 6.2
2017-Sep-16 02:31N 51°27' E 006°44'1 1.0
2017-Sep-16 02:00N 51°27' E 006°45'0 0.0
2017-Sep-16 01:27N 51°27' E 006°45'0 0.0
2017-Sep-16 01:00N 51°27' E 006°45'0 0.1
2017-Sep-16 00:30N 51°27' E 006°45'0 0.0
2017-Sep-15 23:57N 51°27' E 006°45'0 0.0
2017-Sep-15 23:30N 51°27' E 006°45'0 0.0
2017-Sep-15 23:00N 51°27' E 006°45'0 0.0
2017-Sep-15 22:30N 51°27' E 006°45'0 0.0
2017-Sep-15 22:00N 51°27' E 006°45'0 0.0
2017-Sep-15 21:27N 51°27' E 006°45'0 0.0
2017-Sep-15 21:00N 51°27' E 006°45'0 0.0
2017-Sep-15 20:30N 51°27' E 006°45'0 0.0
2017-Sep-15 20:00N 51°27' E 006°45'0 0.0
2017-Sep-15 19:30N 51°27' E 006°45'0 0.0
2017-Sep-15 18:54N 51°27' E 006°45'0 0.0
2017-Sep-15 18:27N 51°27' E 006°45'0 0.0
2017-Sep-15 18:00N 51°27' E 006°45'0 0.0
2017-Sep-15 17:30N 51°27' E 006°45'0 0.0
2017-Sep-15 17:00N 51°27' E 006°45'0 0.1
2017-Sep-15 16:30N 51°27' E 006°45'0 0.0
2017-Sep-15 16:00N 51°27' E 006°45'0 0.0
2017-Sep-15 15:30N 51°27' E 006°45'0 0.0
2017-Sep-15 15:00N 51°27' E 006°45'0 0.0
2017-Sep-15 14:27N 51°27' E 006°45'0 0.0
2017-Sep-15 14:00N 51°27' E 006°45'0 0.2
2017-Sep-15 13:30N 51°27' E 006°45'2 3.1
2017-Sep-15 13:01N 51°27' E 006°43'1 2.3
2017-Sep-15 12:30N 51°26' E 006°44'0 0.0
2017-Sep-15 11:59N 51°26' E 006°44'0 0.0
2017-Sep-15 11:29N 51°26' E 006°44'0 0.0
2017-Sep-15 10:56N 51°26' E 006°44'0 0.0
2017-Sep-15 10:29N 51°26' E 006°44'0 0.0
2017-Sep-15 09:56N 51°26' E 006°44'0 0.0
2017-Sep-15 09:29N 51°26' E 006°44'0 0.0
2017-Sep-15 08:59N 51°26' E 006°44'0 0.0
2017-Sep-15 08:29N 51°26' E 006°44'0 0.0
2017-Sep-15 07:59N 51°26' E 006°44'0 0.0
2017-Sep-15 07:29N 51°26' E 006°44'0 0.0
2017-Sep-15 06:56N 51°26' E 006°44'0 0.0
2017-Sep-15 06:29N 51°26' E 006°44'0 0.0
2017-Sep-15 05:59N 51°26' E 006°44'0 0.0
2017-Sep-15 05:20N 51°26' E 006°44'0 0.0
2017-Sep-15 04:59N 51°26' E 006°44'0 0.0
2017-Sep-15 04:23N 51°26' E 006°44'0 0.0
2017-Sep-14 18:56N 51°26' E 006°44'0 0.0
2017-Sep-14 18:26N 51°26' E 006°44'0 0.0
2017-Sep-14 17:47N 51°26' E 006°44'0 0.0
2017-Sep-14 17:20N 51°26' E 006°44'0 0.0
2017-Sep-14 16:56N 51°26' E 006°44'0 0.0
2017-Sep-14 16:26N 51°26' E 006°44'0 0.1
2017-Sep-14 12:58N 51°26' E 006°44'1 3.1
2017-Sep-14 12:30N 51°27' E 006°44'2 0.3
2017-Sep-14 05:56N 51°27' E 006°46'0 0.0
2017-Sep-14 05:29N 51°27' E 006°46'0 0.0
2017-Sep-14 04:59N 51°27' E 006°46'0 0.0
2017-Sep-14 04:29N 51°27' E 006°46'0 0.0
2017-Sep-14 03:59N 51°27' E 006°46'0 0.0
2017-Sep-14 03:23N 51°27' E 006°46'0 0.0
2017-Sep-14 02:59N 51°27' E 006°46'0 0.0
2017-Sep-14 02:26N 51°27' E 006°46'0 0.0
2017-Sep-14 01:59N 51°27' E 006°46'0 0.0
2017-Sep-14 01:26N 51°27' E 006°46'0 0.0
2017-Sep-14 00:59N 51°27' E 006°46'0 0.0
2017-Sep-14 00:29N 51°27' E 006°46'0 0.0
2017-Sep-13 23:59N 51°27' E 006°46'0 0.0
2017-Sep-13 23:29N 51°27' E 006°46'0 0.0
2017-Sep-13 22:59N 51°27' E 006°46'0 0.0
2017-Sep-13 22:29N 51°27' E 006°46'0 0.0
2017-Sep-13 21:59N 51°27' E 006°46'0 0.0
2017-Sep-13 21:29N 51°27' E 006°46'0 0.0
2017-Sep-13 20:56N 51°27' E 006°46'0 0.0
2017-Sep-13 20:29N 51°27' E 006°46'0 0.0
2017-Sep-13 19:59N 51°27' E 006°46'0 0.0
2017-Sep-13 19:29N 51°27' E 006°46'0 0.0
2017-Sep-13 18:53N 51°27' E 006°46'0 0.0
2017-Sep-13 18:29N 51°27' E 006°46'0 0.0
2017-Sep-13 17:59N 51°27' E 006°46'0 0.0
2017-Sep-13 17:26N 51°27' E 006°46'0 0.0
2017-Sep-13 16:59N 51°27' E 006°46'0 0.0
2017-Sep-13 16:29N 51°27' E 006°46'1 2.7
2017-Sep-13 16:01N 51°27' E 006°44'2 4.7
2017-Sep-13 15:30N 51°28' E 006°42'2 3.8
2017-Sep-13 15:00N 51°30' E 006°43'4 4.8
2017-Sep-13 14:08N 51°34' E 006°41'3 4.3
2017-Sep-13 13:21N 51°35' E 006°36'2 6.1
2017-Sep-13 13:00N 51°37' E 006°35'3 5.1
2017-Sep-13 12:30N 51°39' E 006°36'3 5.7
2017-Sep-13 11:59N 51°40' E 006°31'4 5.4
2017-Sep-13 11:13N 51°43' E 006°26'1 5.5
2017-Sep-13 10:57N 51°43' E 006°24'2 4.2
2017-Sep-13 10:27N 51°45' E 006°23'3 5.6
2017-Sep-13 10:00N 51°46' E 006°20'3 6.5
2017-Sep-13 09:30N 51°49' E 006°17'3 6.3
2017-Sep-13 09:00N 51°50' E 006°12'3 6.4
2017-Sep-13 08:30N 51°51' E 006°07'0 1.0
2017-Sep-13 08:00N 51°51' E 006°06'2 3.6
2017-Sep-13 07:30N 51°52' E 006°04'2 4.8
2017-Sep-13 07:00N 51°53' E 005°60'2 4.2
2017-Sep-13 06:30N 51°52' E 005°56'3 5.5
2017-Sep-13 06:00N 51°51' E 005°52'3 5.8
2017-Sep-13 05:29N 51°53' E 005°48'31 6.1
2017-Sep-13 00:25N 51°49' E 004°58'4 8.6
2017-Sep-12 23:59N 51°49' E 004°52'4 8.2
2017-Sep-12 23:31N 51°49' E 004°46'4 7.3
2017-Sep-12 23:00N 51°50' E 004°40'4 8.2
2017-Sep-12 22:30N 51°53' E 004°36'4 7.6
2017-Sep-12 22:00N 51°55' E 004°31'4 7.2
2017-Sep-12 21:30N 51°54' E 004°25'0 0.6
2017-Sep-12 21:00N 51°55' E 004°25'0 0.0
2017-Sep-12 20:30N 51°55' E 004°25'0 0.0
2017-Sep-12 20:00N 51°55' E 004°25'0 0.0
2017-Sep-12 19:30N 51°55' E 004°25'0 0.0
2017-Sep-12 19:00N 51°55' E 004°25'0 0.0
2017-Sep-12 18:30N 51°55' E 004°25'0 0.0
2017-Sep-12 18:00N 51°55' E 004°25'0 0.0
2017-Sep-12 17:30N 51°55' E 004°25'0 0.0
2017-Sep-12 17:00N 51°55' E 004°25'0 0.0
2017-Sep-12 16:30N 51°55' E 004°25'0 0.0
2017-Sep-12 16:00N 51°55' E 004°25'0 0.0
2017-Sep-12 15:31N 51°55' E 004°25'0 0.4
2017-Sep-12 15:00N 51°54' E 004°25'3 6.1
2017-Sep-12 14:31N 51°54' E 004°20'4 7.5
2017-Sep-12 14:00N 51°55' E 004°15'4 7.1
2017-Sep-12 13:30N 51°57' E 004°10'4 7.2
2017-Sep-12 13:00N 51°59' E 004°05'4 7.3
2017-Sep-12 12:30N 51°60' E 003°59'4 7.9
2017-Sep-12 12:01N 52°01' E 003°53'4 8.6
2017-Sep-12 11:31N 52°05' E 003°49'611.5
2017-Sep-12 10:59N 52°10' E 003°47'3 5.6
2017-Sep-12 10:30N 52°13' E 003°47'4 8.5
2017-Sep-12 10:00N 52°17' E 003°48'7 7.8
2017-Sep-12 09:07N 52°24' E 003°50'6 7.2
2017-Sep-12 08:18N 52°30' E 003°52'2 6.6
2017-Sep-12 07:58N 52°32' E 003°52'3 6.5
2017-Sep-12 07:30N 52°35' E 003°54'3 6.2
2017-Sep-12 07:00N 52°38' E 003°55'3 5.8
2017-Sep-12 06:30N 52°41' E 003°55'3 5.9
2017-Sep-12 06:00N 52°44' E 003°56'3 5.7
2017-Sep-12 05:30N 52°47' E 003°57'3 5.8
2017-Sep-12 05:00N 52°49' E 003°58'5 6.6
2017-Sep-12 04:18N 52°54' E 003°59'3 6.7
2017-Sep-12 03:50N 52°57' E 004°01'3 6.6
2017-Sep-12 03:20N 52°59' E 004°05'61 6.0
2017-Sep-11 17:14N 53°54' E 004°51'2 5.3
2017-Sep-11 16:54N 53°55' E 004°52'2 5.0
2017-Sep-11 16:29N 53°57' E 004°53'2 4.8
2017-Sep-11 16:00N 53°60' E 004°54'2 4.5
2017-Sep-11 15:29N 54°02' E 004°56'2 4.6
2017-Sep-11 15:00N 54°04' E 004°57'2 4.6
2017-Sep-11 14:29N 54°06' E 004°58'2 4.8
2017-Sep-11 13:59N 54°08' E 004°59'3 4.8
2017-Sep-11 13:24N 54°11' E 004°59'2 4.8
2017-Sep-11 12:59N 54°13' E 004°59'  
Track history (hours):
 
Tides and Currents Weather Stations Pressure Air Temp Water Temp Dewpoint Dewpoint Depression Visibility Wind Speed Wind Dir Waves Ship Positions

Kine

Last reported at 2017-Sep-21 06:30 UTC. Time now 2017-Sep-21 06:55 UTC.
Position N 59°11' E 010°57'.

Length 89 m; draft 3.6 m.

Type: Cargo ship. MMSI: 311117000.

Date/timePositionNaut miles runAvg speedWind from/ knotsBaromVisibWave heightAir tempDewpointWater temp
2017-Sep-21 06:30N 59°11' E 010°57'0 0.0
2017-Sep-21 06:00N 59°11' E 010°57'0 0.0
2017-Sep-21 05:30N 59°11' E 010°57'0 0.0
2017-Sep-21 05:00N 59°11' E 010°57'0 0.0
2017-Sep-21 04:30N 59°11' E 010°57'0 0.0
2017-Sep-21 04:00N 59°11' E 010°57'0 0.0
2017-Sep-21 03:30N 59°11' E 010°57'0 0.0
2017-Sep-21 03:00N 59°11' E 010°57'0 0.0
2017-Sep-21 02:30N 59°11' E 010°57'0 0.0
2017-Sep-21 02:00N 59°11' E 010°57'0 0.0
2017-Sep-21 01:30N 59°11' E 010°57'0 0.0
2017-Sep-21 01:00N 59°11' E 010°57'0 0.0
2017-Sep-21 00:30N 59°11' E 010°57'0 0.0
2017-Sep-21 00:00N 59°11' E 010°57'0 0.0
2017-Sep-20 23:30N 59°11' E 010°57'0 0.0
2017-Sep-20 23:00N 59°11' E 010°57'0 0.0
2017-Sep-20 22:30N 59°11' E 010°57'0 0.0
2017-Sep-20 22:00N 59°11' E 010°57'0 0.0
2017-Sep-20 21:30N 59°11' E 010°57'0 0.0
2017-Sep-20 21:00N 59°11' E 010°57'0 0.0
2017-Sep-20 20:30N 59°11' E 010°57'0 0.0
2017-Sep-20 20:00N 59°11' E 010°57'0 0.0
2017-Sep-20 19:30N 59°11' E 010°57'0 0.0
2017-Sep-20 19:00N 59°11' E 010°57'0 0.0
2017-Sep-20 18:30N 59°11' E 010°57'0 0.0
2017-Sep-20 18:00N 59°11' E 010°57'0 0.0
2017-Sep-20 17:31N 59°11' E 010°57'3 5.1
2017-Sep-20 17:01N 59°08' E 010°56'4 8.2
2017-Sep-20 16:30N 59°09' E 010°48'5 9.2
2017-Sep-20 16:00N 59°13' E 010°44'5 9.8
2017-Sep-20 15:31N 59°17' E 010°41'5 9.8
2017-Sep-20 15:00N 59°22' E 010°37'5 4.7
2017-Sep-20 13:59N 59°25' E 010°30'0 0.0
2017-Sep-20 13:29N 59°25' E 010°30'0 0.0
2017-Sep-20 12:59N 59°25' E 010°30'0 0.0
2017-Sep-20 12:29N 59°25' E 010°30'0 0.0
2017-Sep-20 11:59N 59°25' E 010°30'0 0.0
2017-Sep-20 11:29N 59°25' E 010°30'0 0.0
2017-Sep-20 10:59N 59°25' E 010°30'0 0.0
2017-Sep-20 10:29N 59°25' E 010°30'0 0.0
2017-Sep-20 09:59N 59°25' E 010°30'0 0.1
2017-Sep-20 09:29N 59°25' E 010°30'0 0.0
2017-Sep-20 08:59N 59°25' E 010°30'0 0.0
2017-Sep-20 08:29N 59°25' E 010°30'0 0.0
2017-Sep-20 07:59N 59°25' E 010°30'0 0.0
2017-Sep-20 07:29N 59°25' E 010°30'0 0.0
2017-Sep-20 06:59N 59°25' E 010°30'0 0.7
2017-Sep-20 06:30N 59°24' E 010°30'5 9.3
2017-Sep-20 06:00N 59°20' E 010°32'5 9.7
2017-Sep-20 05:30N 59°15' E 010°35'5 9.9
2017-Sep-20 05:00N 59°10' E 010°37'5 9.7
2017-Sep-20 04:30N 59°06' E 010°35'5 9.8
2017-Sep-20 04:00N 59°01' E 010°34'5 9.6
2017-Sep-20 03:30N 58°57' E 010°28'510.0
2017-Sep-20 03:00N 58°54' E 010°20'510.0
2017-Sep-20 02:30N 58°51' E 010°13'510.0
2017-Sep-20 02:00N 58°48' E 010°05'5 9.6
2017-Sep-20 01:30N 58°45' E 009°58'5 9.5
2017-Sep-20 01:00N 58°42' E 009°51'5 9.2
2017-Sep-20 00:30N 58°39' E 009°45'5 9.1
2017-Sep-20 00:00N 58°36' E 009°38'5 9.0
2017-Sep-19 23:29N 58°33' E 009°31'4 9.0
2017-Sep-19 23:00N 58°30' E 009°24'4 8.9
2017-Sep-19 22:30N 58°27' E 009°18'4 8.8
2017-Sep-19 22:00N 58°25' E 009°11'4 8.7
2017-Sep-19 21:30N 58°22' E 009°05'4 8.4
2017-Sep-19 21:00N 58°19' E 008°59'4 8.3
2017-Sep-19 20:30N 58°17' E 008°52'4 7.6
2017-Sep-19 20:00N 58°14' E 008°47'4 7.5
2017-Sep-19 19:30N 58°12' E 008°41'4 7.8
2017-Sep-19 19:00N 58°10' E 008°35'4 7.9
2017-Sep-19 18:30N 58°08' E 008°29'4 7.9
2017-Sep-19 18:00N 58°05' E 008°23'4 7.8
2017-Sep-19 17:30N 58°03' E 008°17'4 7.7
2017-Sep-19 17:00N 58°01' E 008°11'4 7.8
2017-Sep-19 16:30N 57°60' E 008°03'4 8.2
2017-Sep-19 16:00N 57°58' E 007°56'4 8.7
2017-Sep-19 15:30N 57°57' E 007°49'5 9.0
2017-Sep-19 15:00N 57°55' E 007°41'4 9.0
2017-Sep-19 14:30N 57°54' E 007°33'4 8.9
2017-Sep-19 14:00N 57°54' E 007°24'5 9.2
2017-Sep-19 13:30N 57°54' E 007°16'5 9.3
2017-Sep-19 13:00N 57°55' E 007°07'5 9.6
2017-Sep-19 12:30N 57°56' E 006°58'5 9.3
2017-Sep-19 12:01N 57°57' E 006°50'5 9.2
2017-Sep-19 11:30N 57°58' E 006°41'5 9.3
2017-Sep-19 11:00N 58°00' E 006°34'5 9.3
2017-Sep-19 10:30N 58°03' E 006°26'4 9.0
2017-Sep-19 10:00N 58°06' E 006°20'4 8.8
2017-Sep-19 09:31N 58°09' E 006°14'4 8.8
2017-Sep-19 09:00N 58°12' E 006°08'4 8.8
2017-Sep-19 08:30N 58°15' E 006°02'4 8.7
2017-Sep-19 08:00N 58°18' E 005°56'4 8.6
2017-Sep-19 07:30N 58°21' E 005°49'4 8.5
2017-Sep-19 07:00N 58°24' E 005°44'4 8.7
2017-Sep-19 06:30N 58°28' E 005°40'5 9.2
2017-Sep-19 06:00N 58°32' E 005°36'5 9.6
2017-Sep-19 05:29N 58°36' E 005°32'5 9.4
2017-Sep-19 05:00N 58°41' E 005°28'4 9.0
2017-Sep-19 04:30N 58°45' E 005°25'5 9.2
2017-Sep-19 04:00N 58°49' E 005°27'5 9.5
2017-Sep-19 03:30N 58°53' E 005°32'5 9.2
2017-Sep-19 03:00N 58°58' E 005°33'5 9.3
2017-Sep-19 02:31N 59°03' E 005°33'4 7.5
2017-Sep-19 02:01N 59°01' E 005°40'4 8.4
2017-Sep-19 01:30N 59°01' E 005°48'5 9.4
2017-Sep-19 01:00N 58°57' E 005°47'4 8.8
2017-Sep-19 00:30N 58°52' E 005°45'0 0.3
2017-Sep-19 00:00N 58°52' E 005°45'0 0.0
2017-Sep-18 23:30N 58°52' E 005°45'0 0.0
2017-Sep-18 23:00N 58°52' E 005°45'0 0.0
2017-Sep-18 22:30N 58°52' E 005°45'0 0.0
2017-Sep-18 22:00N 58°52' E 005°45'0 0.0
2017-Sep-18 21:30N 58°52' E 005°45'0 0.1
2017-Sep-18 21:00N 58°52' E 005°45'0 0.0
2017-Sep-18 20:30N 58°52' E 005°45'0 0.0
2017-Sep-18 20:00N 58°52' E 005°45'0 0.0
2017-Sep-18 19:30N 58°52' E 005°45'4 7.9
2017-Sep-18 19:00N 58°56' E 005°46'5 9.8
2017-Sep-18 18:30N 59°01' E 005°48'4 8.0
2017-Sep-18 18:00N 59°01' E 005°40'5 9.7
2017-Sep-18 17:30N 59°04' E 005°33'2 4.8
2017-Sep-18 17:00N 59°02' E 005°33'510.8
2017-Sep-18 16:30N 58°57' E 005°33'510.1
2017-Sep-18 16:00N 58°52' E 005°31'4 7.1
2017-Sep-18 15:30N 58°49' E 005°27'4 8.6
2017-Sep-18 15:00N 58°45' E 005°25'510.0
2017-Sep-18 14:30N 58°40' E 005°24'5 9.9
2017-Sep-18 14:00N 58°35' E 005°24'510.7
2017-Sep-18 13:30N 58°29' E 005°24'510.3
2017-Sep-18 13:00N 58°24' E 005°24'5 9.9
2017-Sep-18 12:30N 58°19' E 005°24'349 9.3
2017-Sep-16 22:50N 52°34' E 003°58'26 9.3
2017-Sep-16 19:59N 52°08' E 003°55'4 9.3
2017-Sep-16 19:30N 52°03' E 003°59'5 9.9
2017-Sep-16 19:00N 51°59' E 004°03'611.8
2017-Sep-16 18:30N 51°57' E 004°11'611.3
2017-Sep-16 18:00N 51°54' E 004°19'4 7.2
2017-Sep-16 17:30N 51°54' E 004°25'0 0.0
2017-Sep-16 17:00N 51°54' E 004°25'0 0.0
2017-Sep-16 16:30N 51°54' E 004°25'0 0.0
2017-Sep-16 16:00N 51°54' E 004°25'0 0.0
2017-Sep-16 15:30N 51°54' E 004°25'0 0.0
2017-Sep-16 15:00N 51°54' E 004°25'0 0.0
2017-Sep-16 14:30N 51°54' E 004°25'0 0.0
2017-Sep-16 14:00N 51°54' E 004°25'2 3.0
2017-Sep-16 13:30N 51°54' E 004°27'3 5.2
2017-Sep-16 13:01N 51°54' E 004°31'4 7.9
2017-Sep-16 12:27N 51°52' E 004°38'3 8.0
2017-Sep-16 12:01N 51°49' E 004°41'5 9.2
2017-Sep-16 11:30N 51°49' E 004°48'510.2
2017-Sep-16 11:00N 51°50' E 004°56'2910.0
2017-Sep-16 08:06N 51°53' E 005°43'211.4
2017-Sep-16 07:56N 51°53' E 005°46'410.4
2017-Sep-16 07:30N 51°51' E 005°53'4 8.2
2017-Sep-16 07:00N 51°52' E 005°59'5 9.8
2017-Sep-16 06:30N 51°51' E 006°07'611.1
2017-Sep-16 06:00N 51°49' E 006°16'611.0
2017-Sep-16 05:29N 51°45' E 006°22'5 8.0
2017-Sep-16 04:54N 51°42' E 006°28'410.4
2017-Sep-16 04:30N 51°39' E 006°33'4 8.6
2017-Sep-16 04:00N 51°36' E 006°36'7 8.4
2017-Sep-16 03:11N 51°31' E 006°43'2 9.9
2017-Sep-16 03:00N 51°29' E 006°41'3 6.2
2017-Sep-16 02:31N 51°27' E 006°44'1 1.0
2017-Sep-16 02:00N 51°27' E 006°45'0 0.0
2017-Sep-16 01:27N 51°27' E 006°45'0 0.0
2017-Sep-16 01:00N 51°27' E 006°45'0 0.1
2017-Sep-16 00:30N 51°27' E 006°45'0 0.0
2017-Sep-15 23:57N 51°27' E 006°45'0 0.0
2017-Sep-15 23:30N 51°27' E 006°45'0 0.0
2017-Sep-15 23:00N 51°27' E 006°45'0 0.0
2017-Sep-15 22:30N 51°27' E 006°45'0 0.0
2017-Sep-15 22:00N 51°27' E 006°45'0 0.0
2017-Sep-15 21:27N 51°27' E 006°45'0 0.0
2017-Sep-15 21:00N 51°27' E 006°45'0 0.0
2017-Sep-15 20:30N 51°27' E 006°45'0 0.0
2017-Sep-15 20:00N 51°27' E 006°45'0 0.0
2017-Sep-15 19:30N 51°27' E 006°45'0 0.0
2017-Sep-15 18:54N 51°27' E 006°45'0 0.0
2017-Sep-15 18:27N 51°27' E 006°45'0 0.0
2017-Sep-15 18:00N 51°27' E 006°45'0 0.0
2017-Sep-15 17:30N 51°27' E 006°45'0 0.0
2017-Sep-15 17:00N 51°27' E 006°45'0 0.1
2017-Sep-15 16:30N 51°27' E 006°45'0 0.0
2017-Sep-15 16:00N 51°27' E 006°45'0 0.0
2017-Sep-15 15:30N 51°27' E 006°45'0 0.0
2017-Sep-15 15:00N 51°27' E 006°45'0 0.0
2017-Sep-15 14:27N 51°27' E 006°45'0 0.0
2017-Sep-15 14:00N 51°27' E 006°45'0 0.2
2017-Sep-15 13:30N 51°27' E 006°45'2 3.1
2017-Sep-15 13:01N 51°27' E 006°43'1 2.3
2017-Sep-15 12:30N 51°26' E 006°44'0 0.0
2017-Sep-15 11:59N 51°26' E 006°44'0 0.0
2017-Sep-15 11:29N 51°26' E 006°44'0 0.0
2017-Sep-15 10:56N 51°26' E 006°44'0 0.0
2017-Sep-15 10:29N 51°26' E 006°44'0 0.0
2017-Sep-15 09:56N 51°26' E 006°44'0 0.0
2017-Sep-15 09:29N 51°26' E 006°44'0 0.0
2017-Sep-15 08:59N 51°26' E 006°44'0 0.0
2017-Sep-15 08:29N 51°26' E 006°44'0 0.0
2017-Sep-15 07:59N 51°26' E 006°44'0 0.0
2017-Sep-15 07:29N 51°26' E 006°44'0 0.0
2017-Sep-15 06:56N 51°26' E 006°44'0 0.0
2017-Sep-15 06:29N 51°26' E 006°44'0 0.0
2017-Sep-15 05:59N 51°26' E 006°44'0 0.0
2017-Sep-15 05:20N 51°26' E 006°44'0 0.0
2017-Sep-15 04:59N 51°26' E 006°44'0 0.0
2017-Sep-15 04:23N 51°26' E 006°44'0 0.0
2017-Sep-14 18:56N 51°26' E 006°44'0 0.0
2017-Sep-14 18:26N 51°26' E 006°44'0 0.0
2017-Sep-14 17:47N 51°26' E 006°44'0 0.0
2017-Sep-14 17:20N 51°26' E 006°44'0 0.0
2017-Sep-14 16:56N 51°26' E 006°44'0 0.0
2017-Sep-14 16:26N 51°26' E 006°44'0 0.1
2017-Sep-14 12:58N 51°26' E 006°44'1 3.1
2017-Sep-14 12:30N 51°27' E 006°44'2 0.3
2017-Sep-14 05:56N 51°27' E 006°46'0 0.0
2017-Sep-14 05:29N 51°27' E 006°46'0 0.0
2017-Sep-14 04:59N 51°27' E 006°46'0 0.0
2017-Sep-14 04:29N 51°27' E 006°46'0 0.0
2017-Sep-14 03:59N 51°27' E 006°46'0 0.0
2017-Sep-14 03:23N 51°27' E 006°46'0 0.0
2017-Sep-14 02:59N 51°27' E 006°46'0 0.0
2017-Sep-14 02:26N 51°27' E 006°46'0 0.0
2017-Sep-14 01:59N 51°27' E 006°46'0 0.0
2017-Sep-14 01:26N 51°27' E 006°46'0 0.0
2017-Sep-14 00:59N 51°27' E 006°46'0 0.0
2017-Sep-14 00:29N 51°27' E 006°46'0 0.0
2017-Sep-13 23:59N 51°27' E 006°46'0 0.0
2017-Sep-13 23:29N 51°27' E 006°46'0 0.0
2017-Sep-13 22:59N 51°27' E 006°46'0 0.0
2017-Sep-13 22:29N 51°27' E 006°46'0 0.0
2017-Sep-13 21:59N 51°27' E 006°46'0 0.0
2017-Sep-13 21:29N 51°27' E 006°46'0 0.0
2017-Sep-13 20:56N 51°27' E 006°46'0 0.0
2017-Sep-13 20:29N 51°27' E 006°46'0 0.0
2017-Sep-13 19:59N 51°27' E 006°46'0 0.0
2017-Sep-13 19:29N 51°27' E 006°46'0 0.0
2017-Sep-13 18:53N 51°27' E 006°46'0 0.0
2017-Sep-13 18:29N 51°27' E 006°46'0 0.0
2017-Sep-13 17:59N 51°27' E 006°46'0 0.0
2017-Sep-13 17:26N 51°27' E 006°46'0 0.0
2017-Sep-13 16:59N 51°27' E 006°46'0 0.0
2017-Sep-13 16:29N 51°27' E 006°46'1 2.7
2017-Sep-13 16:01N 51°27' E 006°44'2 4.7
2017-Sep-13 15:30N 51°28' E 006°42'2 3.8
2017-Sep-13 15:00N 51°30' E 006°43'4 4.8
2017-Sep-13 14:08N 51°34' E 006°41'3 4.3
2017-Sep-13 13:21N 51°35' E 006°36'2 6.1
2017-Sep-13 13:00N 51°37' E 006°35'3 5.1
2017-Sep-13 12:30N 51°39' E 006°36'3 5.7
2017-Sep-13 11:59N 51°40' E 006°31'4 5.4
2017-Sep-13 11:13N 51°43' E 006°26'1 5.5
2017-Sep-13 10:57N 51°43' E 006°24'2 4.2
2017-Sep-13 10:27N 51°45' E 006°23'3 5.6
2017-Sep-13 10:00N 51°46' E 006°20'3 6.5
2017-Sep-13 09:30N 51°49' E 006°17'3 6.3
2017-Sep-13 09:00N 51°50' E 006°12'3 6.4
2017-Sep-13 08:30N 51°51' E 006°07'0 1.0
2017-Sep-13 08:00N 51°51' E 006°06'2 3.6
2017-Sep-13 07:30N 51°52' E 006°04'2 4.8
2017-Sep-13 07:00N 51°53' E 005°60'2 4.2
2017-Sep-13 06:30N 51°52' E 005°56'3 5.5
2017-Sep-13 06:00N 51°51' E 005°52'3 5.8
2017-Sep-13 05:29N 51°53' E 005°48'31 6.1
2017-Sep-13 00:25N 51°49' E 004°58'4 8.6
2017-Sep-12 23:59N 51°49' E 004°52'4 8.2
2017-Sep-12 23:31N 51°49' E 004°46'4 7.3
2017-Sep-12 23:00N 51°50' E 004°40'4 8.2
2017-Sep-12 22:30N 51°53' E 004°36'4 7.6
2017-Sep-12 22:00N 51°55' E 004°31'4 7.2
2017-Sep-12 21:30N 51°54' E 004°25'0 0.6
2017-Sep-12 21:00N 51°55' E 004°25'0 0.0
2017-Sep-12 20:30N 51°55' E 004°25'0 0.0
2017-Sep-12 20:00N 51°55' E 004°25'0 0.0
2017-Sep-12 19:30N 51°55' E 004°25'0 0.0
2017-Sep-12 19:00N 51°55' E 004°25'0 0.0
2017-Sep-12 18:30N 51°55' E 004°25'0 0.0
2017-Sep-12 18:00N 51°55' E 004°25'0 0.0
2017-Sep-12 17:30N 51°55' E 004°25'0 0.0
2017-Sep-12 17:00N 51°55' E 004°25'0 0.0
2017-Sep-12 16:30N 51°55' E 004°25'0 0.0
2017-Sep-12 16:00N 51°55' E 004°25'0 0.0
2017-Sep-12 15:31N 51°55' E 004°25'0 0.4
2017-Sep-12 15:00N 51°54' E 004°25'3 6.1
2017-Sep-12 14:31N 51°54' E 004°20'4 7.5
2017-Sep-12 14:00N 51°55' E 004°15'4 7.1
2017-Sep-12 13:30N 51°57' E 004°10'4 7.2
2017-Sep-12 13:00N 51°59' E 004°05'4 7.3
2017-Sep-12 12:30N 51°60' E 003°59'4 7.9
2017-Sep-12 12:01N 52°01' E 003°53'4 8.6
2017-Sep-12 11:31N 52°05' E 003°49'611.5
2017-Sep-12 10:59N 52°10' E 003°47'3 5.6
2017-Sep-12 10:30N 52°13' E 003°47'4 8.5
2017-Sep-12 10:00N 52°17' E 003°48'7 7.8
2017-Sep-12 09:07N 52°24' E 003°50'6 7.2
2017-Sep-12 08:18N 52°30' E 003°52'2 6.6
2017-Sep-12 07:58N 52°32' E 003°52'3 6.5
2017-Sep-12 07:30N 52°35' E 003°54'3 6.2
2017-Sep-12 07:00N 52°38' E 003°55'3 5.8
2017-Sep-12 06:30N 52°41' E 003°55'3 5.9
2017-Sep-12 06:00N 52°44' E 003°56'3 5.7
2017-Sep-12 05:30N 52°47' E 003°57'3 5.8
2017-Sep-12 05:00N 52°49' E 003°58'5 6.6
2017-Sep-12 04:18N 52°54' E 003°59'3 6.7
2017-Sep-12 03:50N 52°57' E 004°01'3 6.6
2017-Sep-12 03:20N 52°59' E 004°05'61 6.0
2017-Sep-11 17:14N 53°54' E 004°51'2 5.3
2017-Sep-11 16:54N 53°55' E 004°52'2 5.0
2017-Sep-11 16:29N 53°57' E 004°53'2 4.8
2017-Sep-11 16:00N 53°60' E 004°54'2 4.5
2017-Sep-11 15:29N 54°02' E 004°56'2 4.6
2017-Sep-11 15:00N 54°04' E 004°57'2 4.6
2017-Sep-11 14:29N 54°06' E 004°58'2 4.8
2017-Sep-11 13:59N 54°08' E 004°59'3 4.8
2017-Sep-11 13:24N 54°11' E 004°59'2 4.8
2017-Sep-11 12:59N 54°13' E 004°59'  

Dump ship's entire track history